• Join FlightAware (Why Join?)
  • Login
  • US Flag 
12:03AM EST


 

Airport Tracker/Info


-or-


 

Live Flight TrackerFlight Track Log ✈ SWA3206 ✈ 05-May-2013 ✈ KPHX - KBWI

Flight Track Log - Related Links

Times and Time Zones

All times are in EDT time to prevent confusion due to time zone crossing. See the SWA3206 flight status page for this flight to view local times or setup timezone preferences in your user account.

Time Position Orientation Groundspeed Altitude Reporting Facility
EDT Latitude Longitude Course Direction KTS MPH feet Rate Location/Type
08:41PM 33.4331 -112.0497 269° West 148 170 2,700  Level Albuquerque Center
08:42PM 33.4353 -112.1178 272° West 205 236 4,300 2,580 Climbing Albuquerque Center
08:44PM 33.4592 -112.1942 291° West 268 308 8,000 3,600 Climbing Albuquerque Center
08:45PM 33.5247 -112.1672 19° North 262 302 11,800 2,580 Climbing Albuquerque Center
08:46PM 33.5422 -112.0686 78° East 309 356 13,400 2,280 Climbing Albuquerque Center
08:47PM 33.5650 -111.9558 76° East 358 412 16,500 2,880 Climbing Albuquerque Center
08:48PM 33.5933 -111.8344 74° East 383 441 19,400 3,000 Climbing Albuquerque Center
08:49PM 33.6431 -111.6825 69° East 413 475 22,600 2,820 Climbing Albuquerque Center
08:50PM 33.6831 -111.5506 70° East 424 488 25,200 2,220 Climbing Albuquerque Center
08:51PM 33.7258 -111.4131 69° East 442 509 27,200 1,860 Climbing Albuquerque Center
08:52PM 33.7700 -111.2711 69° East 456 525 29,100 1,680 Climbing Albuquerque Center
08:53PM 33.8147 -111.1225 70° East 475 547 30,700 1,560 Climbing Albuquerque Center
08:54PM 33.8628 -110.9706 69° East 484 557 32,300 1,560 Climbing Albuquerque Center
08:55PM 33.9097 -110.8175 70° East 488 562 34,000 1,380 Climbing Albuquerque Center
08:56PM 33.9664 -110.6297 70° East 494 568 35,200 1,200 Climbing Albuquerque Center
08:57PM 34.0122 -110.4700 71° East 504 580 36,500 1,320 Climbing Albuquerque Center
08:58PM 34.0625 -110.3078 69° East 515 593 38,000 1,200 Climbing Albuquerque Center
08:59PM 34.1094 -110.1492 70° East 510 587 39,000 480 Climbing Albuquerque Center
09:00PM 34.1594 -109.9789 70° East 507 583 39,000  Level Albuquerque Center
09:01PM 34.2200 -109.8058 67° East 503 579 39,000  Level Albuquerque Center
09:02PM 34.2719 -109.6569 67° East 503 579 39,000  Level Albuquerque Center
09:03PM 34.3228 -109.5081 68° East 502 578 39,000  Level Albuquerque Center
09:04PM 34.3831 -109.3339 67° East 502 578 39,000  Level Albuquerque Center
09:05PM 34.4336 -109.1847 68° East 503 579 39,000  Level Albuquerque Center
09:06PM 34.4850 -109.0333 68° East 505 581 39,000  Level Albuquerque Center
09:07PM 34.5442 -108.8586 68° East 504 580 39,000  Level Albuquerque Center
09:08PM 34.5944 -108.7047 68° East 508 585 39,000  Level Albuquerque Center
09:09PM 34.6533 -108.5297 68° East 504 580 39,000  Level Albuquerque Center
09:10PM 34.7003 -108.3872 68° East 504 580 39,000  Level Albuquerque Center
09:11PM 34.7519 -108.2286 68° East 504 580 39,000  Level Albuquerque Center
09:12PM 34.8047 -108.0706 68° East 505 581 39,000  Level Albuquerque Center
09:13PM 34.8589 -107.8997 69° East 503 579 39,000  Level Albuquerque Center
09:14PM 34.9075 -107.7531 68° East 505 581 39,000  Level Albuquerque Center
09:15PM 34.9683 -107.5625 69° East 504 580 39,000  Level Albuquerque Center
09:16PM 35.0192 -107.4042 69° East 502 578 39,000  Level Albuquerque Center
09:17PM 35.0694 -107.2453 69° East 501 577 39,000  Level Albuquerque Center
09:18PM 35.1183 -107.0911 69° East 502 578 39,000  Level Albuquerque Center
09:19PM 35.1733 -106.9172 69° East 493 567 39,000  Level Albuquerque Center
09:20PM 35.2225 -106.7664 68° East 496 571 39,000  Level Albuquerque Center
09:21PM 35.2681 -106.6161 70° East 496 571 39,000  Level Albuquerque Center
09:22PM 35.3206 -106.4439 69° East 499 574 39,000  Level Albuquerque Center
09:23PM 35.3700 -106.2850 69° East 498 573 39,000  Level Albuquerque Center
09:24PM 35.4192 -106.1286 69° East 494 568 39,000  Level Albuquerque Center
09:25PM 35.4664 -105.9697 70° East 495 570 39,000  Level Albuquerque Center
09:26PM 35.5144 -105.8133 69° East 493 567 39,000  Level Albuquerque Center
09:27PM 35.5611 -105.6547 70° East 491 565 39,000  Level Albuquerque Center
09:28PM 35.6081 -105.4978 70° East 486 559 39,000  Level Albuquerque Center
09:29PM 35.6617 -105.3144 70° East 484 557 39,000  Level Albuquerque Center
09:31PM 35.7083 -105.1583 70° East 482 555 39,000  Level Albuquerque Center
09:32PM 35.7525 -105.0044 70° East 474 545 39,000  Level Albuquerque Center
09:33PM 35.7994 -104.8469 70° East 479 551 39,000  Level Albuquerque Center
09:34PM 35.8453 -104.6894 70° East 482 555 39,000  Level Albuquerque Center
09:35PM 35.8919 -104.5306 70° East 485 558 39,000  Level Albuquerque Center
09:36PM 35.9367 -104.3719 71° East 484 557 39,000  Level Albuquerque Center
09:37PM 35.9833 -104.2122 70° East 486 559 39,000  Level Albuquerque Center
09:38PM 36.0289 -104.0522 71° East 487 560 39,000  Level Albuquerque Center
09:39PM 36.0733 -103.8922 71° East 487 560 39,000  Level Albuquerque Center
09:40PM 36.1172 -103.7344 71° East 482 555 39,000  Level Albuquerque Center
09:41PM 36.1633 -103.5794 70° East 477 549 39,000  Level Albuquerque Center
09:42PM 36.2069 -103.4214 71° East 477 549 39,000  Level Albuquerque Center
09:43PM 36.2500 -103.2644 71° East 478 550 39,000  Level Albuquerque Center
09:44PM 36.2928 -103.1042 72° East 483 556 39,000  Level Albuquerque Center
09:45PM 36.3356 -102.9461 71° East 481 554 39,000  Level Albuquerque Center
09:46PM 36.3761 -102.7986 71° East 480 552 39,000  Level Albuquerque Center
09:47PM 36.4189 -102.6419 71° East 479 551 39,000  Level Albuquerque Center
09:48PM 36.4700 -102.4531 71° East 481 554 39,000  Level Albuquerque Center
09:49PM 36.5111 -102.2967 72° East 478 550 39,000  Level Albuquerque Center
09:50PM 36.5528 -102.1392 72° East 478 550 39,000  Level Albuquerque Center
09:51PM 36.5944 -101.9831 72° East 477 549 39,000  Level Albuquerque Center
09:52PM 36.6361 -101.8219 72° East 477 549 39,000  Level Albuquerque Center
09:53PM 36.6758 -101.6717 72° East 478 550 39,000  Level Albuquerque Center
09:54PM 36.7206 -101.4950 72° East 479 551 39,000  Level Albuquerque Center
09:55PM 36.7667 -101.3197 72° East 479 551 39,000  Level Kansas City Center
09:56PM 36.8042 -101.1689 73° East 478 550 39,000  Level Kansas City Center
09:57PM 36.8428 -101.0178 72° East 479 551 39,000  Level Kansas City Center
09:58PM 36.8875 -100.8417 72° East 479 551 39,000  Level Kansas City Center
09:59PM 36.9244 -100.6917 73° East 476 548 39,000  Level Kansas City Center
10:00PM 36.9686 -100.5156 73° East 478 550 39,000  Level Kansas City Center
10:01PM 37.0058 -100.3661 73° East 476 548 39,000  Level Kansas City Center
10:02PM 37.0422 -100.2175 73° East 471 542 39,000  Level Kansas City Center
10:03PM 37.0839 -100.0467 73° East 463 533 39,000  Level Kansas City Center
10:04PM 37.1206 -99.9000 73° East 462 532 39,000  Level Kansas City Center
10:05PM 37.1611 -99.7308 73° East 458 527 39,000  Level Kansas City Center
10:06PM 37.1956 -99.5861 73° East 455 524 39,000  Level Kansas City Center
10:07PM 37.2303 -99.4408 73° East 456 525 39,000  Level Kansas City Center
10:08PM 37.2667 -99.2897 73° East 455 524 39,000  Level Kansas City Center
10:09PM 37.3017 -99.1369 74° East 455 524 39,000  Level Kansas City Center
10:10PM 37.3378 -98.9844 73° East 456 525 39,000  Level Kansas City Center
10:11PM 37.3797 -98.8028 74° East 454 522 39,000  Level Kansas City Center
10:12PM 37.4147 -98.6486 74° East 456 525 39,000  Level Kansas City Center
10:13PM 37.4481 -98.4928 75° East 460 529 39,000  Level Kansas City Center
10:14PM 37.4842 -98.3394 73° East 459 528 39,000  Level Kansas City Center
10:15PM 37.5183 -98.1842 74° East 462 532 39,000 240 Level Kansas City Center
10:16PM 37.5547 -98.0272 74° East 470 541 39,500 720 Climbing Kansas City Center
10:18PM 37.5897 -97.8686 74° East 475 547 40,500 720 Climbing Kansas City Center
10:19PM 37.6242 -97.7117 74° East 470 541 41,000 240 Climbing Kansas City Center
10:20PM 37.6653 -97.5267 74° East 464 534 41,000  Level Kansas City Center
10:21PM 37.6992 -97.3706 75° East 464 534 41,000  Level Kansas City Center
10:22PM 37.7331 -97.2144 75° East 463 533 41,000  Level Kansas City Center
10:23PM 37.7672 -97.0575 75° East 465 535 41,000  Level Kansas City Center
10:24PM 37.8008 -96.8997 75° East 467 537 41,000  Level Kansas City Center
10:25PM 37.8342 -96.7417 75° East 467 537 41,000  Level Kansas City Center
10:26PM 37.8683 -96.5819 75° East 470 541 41,000  Level Kansas City Center
10:27PM 37.9025 -96.4186 75° East 479 551 41,000  Level Kansas City Center
10:28PM 37.9369 -96.2553 75° East 481 554 41,000  Level Kansas City Center
10:29PM 37.9733 -96.0719 76° East 481 554 41,000  Level Kansas City Center
10:30PM 38.0094 -95.8967 75° East 465 535 41,000  Level Kansas City Center
10:31PM 38.0397 -95.7425 76° East 470 541 41,000  Level Kansas City Center
10:32PM 38.0706 -95.5894 76° East 471 542 41,000  Level Kansas City Center
10:33PM 38.1064 -95.4089 76° East 474 545 41,000  Level Kansas City Center
10:34PM 38.1367 -95.2544 76° East 474 545 41,000  Level Kansas City Center
10:35PM 38.1714 -95.0772 76° East 465 535 41,000  Level Kansas City Center
10:36PM 38.2011 -94.9239 76° East 466 536 41,000  Level Kansas City Center
10:37PM 38.2311 -94.7711 76° East 467 537 41,000  Level Kansas City Center
10:38PM 38.2661 -94.5917 76° East 469 540 41,000  Level Kansas City Center
10:39PM 38.2936 -94.4417 77° East 466 536 41,000  Level Kansas City Center
10:40PM 38.3233 -94.2900 76° East 463 533 41,000  Level Kansas City Center
10:41PM 38.3547 -94.1125 77° East 462 532 41,000  Level Kansas City Center
10:42PM 38.3800 -93.9736 77° East 456 525 41,000  Level Kansas City Center
10:43PM 38.4103 -93.8156 76° East 456 525 41,000  Level Kansas City Center
10:44PM 38.4419 -93.6303 78° East 449 517 41,000  Level Kansas City Center
10:45PM 38.4708 -93.4744 77° East 448 516 41,000  Level Kansas City Center
10:46PM 38.4992 -93.3192 77° East 447 514 41,000  Level Kansas City Center
10:47PM 38.5267 -93.1647 77° East 445 512 41,000  Level Kansas City Center
10:48PM 38.5561 -93.0075 76° East 448 516 41,000  Level Kansas City Center
10:49PM 38.5814 -92.8514 78° East 447 514 41,000  Level Kansas City Center
10:50PM 38.6092 -92.6972 77° East 445 512 41,000  Level Kansas City Center
10:51PM 38.6369 -92.5394 77° East 448 516 41,000  Level Kansas City Center
10:52PM 38.6633 -92.3844 78° East 446 513 41,000  Level Kansas City Center
10:53PM 38.6883 -92.2269 78° East 446 513 41,000  Level Kansas City Center
10:54PM 38.7142 -92.0731 78° East 441 507 41,000  Level Kansas City Center
10:55PM 38.7400 -91.9194 78° East 438 504 41,000  Level Kansas City Center
10:56PM 38.7653 -91.7656 78° East 439 505 41,000  Level Kansas City Center
10:57PM 38.7906 -91.6083 78° East 442 509 41,000  Level Kansas City Center
10:58PM 38.8161 -91.4536 78° East 444 511 41,000  Level Kansas City Center
10:59PM 38.8411 -91.3003 78° East 443 510 41,000  Level Kansas City Center
11:00PM 38.8644 -91.1517 79° East 435 501 41,000  Level Kansas City Center
11:01PM 38.8872 -91.0042 79° East 428 493 41,000  Level Kansas City Center
11:02PM 38.9106 -90.8558 79° East 425 489 41,000  Level Kansas City Center
11:03PM 38.9342 -90.7050 79° East 426 490 41,000  Level Kansas City Center
11:04PM 38.9583 -90.5517 78° East 430 495 41,000  Level Kansas City Center
11:05PM 38.9817 -90.3975 79° East 435 501 41,000  Level Kansas City Center
11:06PM 39.0056 -90.2397 79° East 441 507 41,000  Level Kansas City Center
11:07PM 39.0286 -90.0803 79° East 449 517 41,000  Level Kansas City Center
11:08PM 39.0547 -89.8956 80° East 448 516 41,000  Level Kansas City Center
11:09PM 39.0778 -89.7386 79° East 446 513 41,000  Level Kansas City Center
11:10PM 39.1000 -89.5869 79° East 434 499 41,000  Level Kansas City Center
11:11PM 39.1231 -89.4228 80° East 430 495 41,000  Level Kansas City Center
11:12PM 39.1444 -89.2703 80° East 432 497 41,000  Level Kansas City Center
11:13PM 39.1656 -89.1253 79° East 434 499 41,000  Level Kansas City Center
11:14PM 39.1864 -88.9728 80° East 433 498 41,000  Level Kansas City Center
11:16PM 39.2103 -88.8219 78° East 432 497 41,000  Level Kansas City Center
11:17PM 39.2289 -88.6717 81° East 428 493 41,000  Level Kansas City Center
11:18PM 39.2514 -88.5125 80° East 421 484 41,000  Level Kansas City Center
11:19PM 39.2694 -88.3628 81° East 421 484 41,000  Level Kansas City Center
11:20PM 39.2903 -88.2147 80° East 418 481 41,000  Level Kansas City Center
11:21PM 39.3103 -88.0681 80° East 415 478 41,000  Level Kansas City Center
11:22PM 39.3283 -87.9208 81° East 413 475 41,000  Level Kansas City Center
11:22PM 39.3422 -87.8058 81° East 412 474 41,000  Level Indianapolis Center
11:23PM 39.3608 -87.6556 81° East 419 482 41,000  Level Indianapolis Center
11:25PM 39.3828 -87.4906 80° East 423 487 41,000  Level Indianapolis Center
11:26PM 39.4003 -87.3422 81° East 420 483 41,000  Level Indianapolis Center
11:27PM 39.4189 -87.1950 81° East 418 481 41,000  Level Indianapolis Center
11:28PM 39.4364 -87.0494 81° East 413 475 41,000  Level Indianapolis Center
11:29PM 39.4542 -86.9042 81° East 412 474 41,000  Level Indianapolis Center
11:30PM 39.4708 -86.7592 81° East 411 473 41,000  Level Indianapolis Center
11:31PM 39.4883 -86.6147 81° East 410 472 41,000  Level Indianapolis Center
11:32PM 39.5047 -86.4694 82° East 412 474 41,000  Level Indianapolis Center
11:33PM 39.5256 -86.2958 81° East 414 476 41,000  Level Indianapolis Center
11:34PM 39.5411 -86.1506 82° East 416 479 41,000  Level Indianapolis Center
11:35PM 39.5575 -86.0039 82° East 417 480 41,000  Level Indianapolis Center
11:36PM 39.5739 -85.8575 82° East 416 479 41,000  Level Indianapolis Center
11:37PM 39.5903 -85.7089 82° East 420 483 41,000  Level Indianapolis Center
11:38PM 39.6058 -85.5586 82° East 423 487 41,000  Level Indianapolis Center
11:39PM 39.6222 -85.4067 82° East 427 491 41,000  Level Indianapolis Center
11:40PM 39.6389 -85.2533 82° East 431 496 41,000  Level Indianapolis Center
11:41PM 39.6550 -85.1000 82° East 431 496 41,000  Level Indianapolis Center
11:42PM 39.6708 -84.9475 82° East 429 494 41,000  Level Indianapolis Center
11:43PM 39.6872 -84.7878 82° East 429 494 41,000  Level Indianapolis Center
11:44PM 39.7019 -84.6325 83° East 429 494 41,000  Level Indianapolis Center
11:45PM 39.7175 -84.4769 83° East 431 496 41,000  Level Indianapolis Center
11:46PM 39.7325 -84.3214 83° East 432 497 41,000  Level Indianapolis Center
11:47PM 39.7472 -84.1683 83° East 427 491 41,000  Level Indianapolis Center
11:48PM 39.7625 -84.0142 83° East 426 490 41,000  Level Indianapolis Center
11:49PM 39.7758 -83.8592 84° East 429 494 41,000  Level Indianapolis Center
11:50PM 39.7853 -83.7058 85° East 426 490 41,000  Level Indianapolis Center
11:51PM 39.7886 -83.5414 88° East 424 488 41,000  Level Indianapolis Center
11:52PM 39.7972 -83.3842 86° East 431 496 41,000 -60 Level Indianapolis Center
11:53PM 39.8014 -83.2486 88° East 429 494 40,900  Descending Indianapolis Center
11:54PM 39.8064 -83.0922 88° East 429 494 41,000  Climbing Indianapolis Center
11:55PM 39.8108 -82.9364 88° East 430 495 41,000  Level Indianapolis Center
11:56PM 39.8156 -82.7792 88° East 430 495 41,000  Level Indianapolis Center
11:57PM 39.8194 -82.6228 88° East 431 496 41,000  Level Indianapolis Center
11:58PM 39.8242 -82.4658 88° East 431 496 41,000  Level Indianapolis Center
11:59PM 39.8272 -82.3108 88° East 427 491 41,000  Level Indianapolis Center
12:00AM 39.8308 -82.1553 88° East 426 490 41,000  Level Indianapolis Center
12:01AM 39.8272 -82.0033 92° East 419 482 41,000  Level Indianapolis Center
12:02AM 39.8133 -81.8522 97° East 418 481 41,000  Level Indianapolis Center
12:03AM 39.7989 -81.7008 97° East 418 481 41,000  Level Indianapolis Center
12:04AM 39.7847 -81.5472 97° East 424 488 41,000  Level Indianapolis Center
12:04AM 39.7842 -81.5017 91° East 411 473 41,000  Level Cleveland Center
12:05AM 39.7706 -81.3500 97° East 416 479 41,000  Level Cleveland Center
12:06AM 39.7550 -81.1986 98° East 416 479 41,000  Level Cleveland Center
12:07AM 39.7411 -81.0475 97° East 421 484 41,000  Level Cleveland Center
12:08AM 39.7250 -80.8933 98° East 426 490 41,000  Level Cleveland Center
12:09AM 39.7106 -80.7394 97° East 426 490 41,000  Level Cleveland Center
12:11AM 39.6839 -80.4936 98° East 428 493 41,000  Level Indianapolis Center
12:11AM 39.6781 -80.4044 95° East 426 490 41,000  Level Washington Center
12:12AM 39.6611 -80.2522 98° East 426 490 41,000 -240 Level Washington Center
12:13AM 39.6461 -80.0978 97° East 432 497 40,600 -720 Descending Washington Center
12:14AM 39.6306 -79.9511 98° East 426 490 39,600 -960 Descending Washington Center
12:15AM 39.6153 -79.7994 97° East 421 484 38,700 -1,020 Descending Washington Center
12:16AM 39.5981 -79.6314 98° East 421 484 37,600 -1,080 Descending Washington Center
12:17AM 39.5783 -79.4742 99° East 431 496 36,600 -960 Descending Washington Center
12:18AM 39.5622 -79.3225 98° East 431 496 35,700 -900 Descending Washington Center
12:19AM 39.5458 -79.1764 98° East 437 503 34,800 -900 Descending Washington Center
12:20AM 39.5272 -79.0247 99° East 437 503 33,900 -1,140 Descending Washington Center
12:21AM 39.5086 -78.8678 99° East 431 496 32,500 -2,040 Descending Washington Center
12:22AM 39.4919 -78.7111 98° East 431 496 29,900 -2,640 Descending Washington Center
12:23AM 39.4731 -78.5597 99° East 431 496 27,300 -2,580 Descending Washington Center
12:24AM 39.4556 -78.4192 99° East 417 480 24,900 -2,340 Descending Washington Center
12:25AM 39.4378 -78.2814 99° East 402 463 22,600 -2,280 Descending Washington Center
12:26AM 39.4219 -78.1519 99° East 380 437 20,400 -2,280 Descending Washington Center
12:27AM 39.4039 -78.0142 100° East 367 422 18,100 -2,400 Descending Washington Center
12:28AM 39.3897 -77.8850 98° East 362 417 15,800 -1,680 Descending Washington Center
12:29AM 39.3942 -77.7614 87° East 350 403 14,900 -1,080 Descending Washington Center
12:30AM 39.3981 -77.6461 87° East 338 389 13,700 -1,560 Descending Washington Center
12:31AM 39.3667 -77.5378 111° Southeast 321 369 11,800 -1,560 Descending Washington Center
12:32AM 39.3500 -77.4500 104° East 286 329 10,800 -1,440 Descending Potomac TRACON
12:33AM 39.3167 -77.3333 110° East 273 314 9,000 -1,620 Descending Potomac TRACON
12:34AM 39.2833 -77.2500 117° Southeast 269 310 7,500 -1,500 Descending Potomac TRACON
12:35AM 39.2667 -77.1667 104° East 260 299 6,000 -1,500 Descending Potomac TRACON
12:37AM 39.2500 -77.0667 102° East 257 296 4,300 -1,320 Descending Potomac TRACON
12:38AM 39.2167 -76.9667 113° Southeast 243 280 3,000 -900 Descending Potomac TRACON
12:39AM 39.2000 -76.9000 108° East 209 241 2,500 -300 Descending Potomac TRACON
12:40AM 39.2000 -76.8333 90° East 152 175 2,500 -540 Level Potomac TRACON
12:41AM 39.1833 -76.7667 108° East 147 169 1,400 -840 Descending Potomac TRACON
12:42AM 39.1833 -76.7333 90° East 122 140 700 -660 Descending Potomac TRACON
12:44AM 39.1667 -76.6667 142° Southeast  Level FlightAware Approximate
12:51AM 39.1754 -76.6683 142° Southeast  Level Estimated
12:52AM 39.1754 -76.6683 142° Southeast  Level Estimated
12:53AM 39.1754 -76.6683 142° Southeast  Level Estimated
12:54AM 39.1754 -76.6683 142° Southeast  Level Estimated
12:55AM 39.1754 -76.6683 142° Southeast  Level Estimated